Historique des stations

Station météo de Maintenon

Altitude de la station : 131 m







Données météorologiques pour le 18/08/2022
Date
Heure
Températures Humidité Point de rosée Vitesse
du vent
Direction Rafales Windchill Pression Pluviométrie
Cumul
Date
Heure
Températures Humidité Point de rosée Vitesse
du vent
Direction Rafales Windchill Pression Pluviométrie
Cumul
18/08/2022 23:5918.4 °C81 %15.0 °C-NNE19 km/h18.3 1016 hPa-
18/08/2022 23:4518.5 °C80 %15.0 °C-NNE19 km/h18.3 1016 hPa-
18/08/2022 23:3119.1 °C79 %15.6 °C-NNE8 km/h18.9 1016 hPa-
18/08/2022 23:2919.0 °C79 %15.6 °C-NO19 km/h18.9 1016 hPa-
18/08/2022 23:1519.6 °C77 %15.6 °C---19.4 1016 hPa-
18/08/2022 23:1419.6 °C76 %15.6 °C-NNE19 km/h19.4 1016 hPa-
18/08/2022 23:0019.8 °C75 %15.6 °C-NNE19 km/h20.0 1016 hPa-
18/08/2022 22:4620.1 °C74 %15.6 °C-NO3 km/h20.0 1016 hPa-
18/08/2022 22:4420.1 °C74 %15.6 °C-NNE19 km/h20.0 1016 hPa-
18/08/2022 22:3020.6 °C72 %15.6 °C-NNE19 km/h20.6 1016 hPa-
18/08/2022 22:1620.9 °C71 %15.6 °C5 km/hO6 km/h21.1 1016 hPa-
18/08/2022 22:1520.9 °C70 %15.6 °C-NNE19 km/h21.1 1016 hPa-
18/08/2022 22:0121.4 °C69 %15.6 °C3 km/hNNO14 km/h21.7 1016 hPa-
18/08/2022 21:5921.6 °C68 %15.6 °C-NO19 km/h21.7 1016 hPa-
18/08/2022 21:4521.8 °C68 %15.6 °C-ENE19 km/h21.7 1015 hPa-
18/08/2022 21:3122.3 °C66 %15.6 °C-NNE8 km/h22.2 1015 hPa-
18/08/2022 21:2922.3 °C66 %15.6 °C-N19 km/h22.2 1015 hPa-
18/08/2022 21:1522.3 °C67 %16.1 °C-NNE2 km/h22.2 1015 hPa-
18/08/2022 21:1422.3 °C67 %16.1 °C-NNE19 km/h22.2 1015 hPa-
18/08/2022 21:0022.9 °C65 %16.1 °C-NNO19 km/h22.8 1015 hPa-
18/08/2022 20:4623.4 °C64 %16.1 °C-N10 km/h23.3 1015 hPa-
18/08/2022 20:4423.4 °C64 %16.1 °C-NNE19 km/h23.3 1015 hPa-
18/08/2022 20:3023.9 °C64 %16.7 °C-N19 km/h23.9 1015 hPa-
18/08/2022 20:1624.7 °C61 %16.7 °C10 km/hN13 km/h24.4 1014 hPa-
18/08/2022 20:1524.7 °C60 %16.1 °C-N19 km/h25.0 1014 hPa-
18/08/2022 20:0125.3 °C58 %16.7 °C-NE13 km/h25.6 1014 hPa-
18/08/2022 19:5925.4 °C57 %16.1 °C-NNE19 km/h25.6 1014 hPa-
18/08/2022 19:4525.8 °C56 %16.1 °C5 km/hNO19 km/h25.6 1014 hPa-
18/08/2022 19:3126.4 °C54 %16.1 °C2 km/hNO8 km/h26.7 1014 hPa-
18/08/2022 19:2926.5 °C53 %16.1 °C3 km/hNNO19 km/h26.7 1014 hPa-
18/08/2022 19:1527.2 °C51 %16.1 °C-NO5 km/h27.2 1014 hPa-
18/08/2022 19:1427.2 °C51 %16.1 °C-NO19 km/h27.2 1014 hPa-
18/08/2022 19:0027.3 °C50 %16.1 °C8 km/hENE19 km/h27.2 1014 hPa-
18/08/2022 18:4627.7 °C48 %15.6 °C-NNO10 km/h27.8 1014 hPa-
18/08/2022 18:4427.8 °C48 %15.6 °C-NO19 km/h27.8 1014 hPa-
18/08/2022 18:3027.8 °C46 %15.0 °C-ONO19 km/h27.8 1014 hPa-
18/08/2022 18:1627.6 °C48 %15.6 °C2 km/hNE8 km/h27.8 1014 hPa-
18/08/2022 18:1527.7 °C48 %15.6 °C8 km/hNNE19 km/h27.8 1014 hPa-
18/08/2022 18:0127.6 °C47 %15.0 °C-O11 km/h27.8 1014 hPa-
18/08/2022 17:5927.9 °C46 %15.0 °C-O19 km/h27.8 1014 hPa-
18/08/2022 17:4527.6 °C48 %15.6 °C6 km/hN19 km/h27.8 1014 hPa-
18/08/2022 17:3127.3 °C50 %16.1 °C-NO13 km/h27.2 1014 hPa-
18/08/2022 17:2927.5 °C51 %16.7 °C-ENE13 km/h27.8 1014 hPa-
18/08/2022 17:1527.2 °C51 %16.1 °C-NNO14 km/h27.2 1014 hPa-
18/08/2022 17:1427.2 °C53 %16.7 °C5 km/hONO13 km/h27.2 1014 hPa-
18/08/2022 17:0026.7 °C50 %15.6 °C5 km/hNO13 km/h26.7 1014 hPa-
18/08/2022 16:4626.9 °C50 %15.6 °C6 km/hNNO11 km/h26.7 1014 hPa-
18/08/2022 16:4427.2 °C50 %15.6 °C3 km/hN13 km/h27.2 1014 hPa-
18/08/2022 16:3027.3 °C51 %16.1 °C2 km/hNNE13 km/h27.2 1014 hPa-
18/08/2022 16:1626.8 °C52 %16.1 °C-NNO13 km/h26.7 1014 hPa-
18/08/2022 16:1527.0 °C53 %16.7 °C2 km/hNNE13 km/h27.2 1014 hPa-
18/08/2022 16:0126.1 °C56 %16.7 °C-ENE5 km/h26.1 1014 hPa-
18/08/2022 15:5926.4 °C54 %16.1 °C-N13 km/h26.7 1014 hPa-
18/08/2022 15:4527.2 °C53 %16.7 °C-OSO13 km/h27.2 1014 hPa-
18/08/2022 15:3127.6 °C54 %17.2 °C-NNO13 km/h27.8 1014 hPa-
18/08/2022 15:2927.7 °C53 %17.2 °C5 km/hNO13 km/h27.8 1014 hPa-
18/08/2022 15:1627.6 °C51 %16.7 °C-OSO6 km/h27.8 1014 hPa-
18/08/2022 15:1527.9 °C51 %16.7 °C-OSO13 km/h27.8 1014 hPa-
18/08/2022 15:0127.1 °C54 %16.7 °C-N10 km/h27.2 1014 hPa-
18/08/2022 14:5926.9 °C56 %17.2 °C-SO13 km/h27.2 1014 hPa-
18/08/2022 14:4527.1 °C56 %17.8 °C-N13 km/h27.2 1014 hPa-
18/08/2022 14:3126.6 °C55 %16.7 °C-NNO13 km/h26.7 1014 hPa-
18/08/2022 14:2926.9 °C57 %17.8 °C2 km/hNNO13 km/h26.7 1014 hPa-
18/08/2022 14:1526.6 °C56 %17.2 °C6 km/hENE6 km/h26.7 1014 hPa-
18/08/2022 14:1026.3 °C58 %17.2 °C-NNO13 km/h26.1 1014 hPa-
18/08/2022 14:0026.0 °C57 %16.7 °C-NNO13 km/h26.1 1014 hPa-
18/08/2022 13:4625.4 °C62 %17.8 °C-N8 km/h25.6 1014 hPa-
18/08/2022 13:4425.5 °C64 %18.3 °C8 km/hNNE13 km/h25.6 1014 hPa-
18/08/2022 13:3025.3 °C64 %17.8 °C-NNO13 km/h25.6 1014 hPa-
18/08/2022 13:1625.2 °C64 %17.8 °C-O13 km/h25.0 1014 hPa-
18/08/2022 13:1525.4 °C67 %18.9 °C-SO13 km/h25.6 1014 hPa-
18/08/2022 13:0124.9 °C64 %17.8 °C5 km/hNNO6 km/h25.0 1014 hPa-
18/08/2022 12:5925.2 °C67 %18.9 °C-NE11 km/h25.0 1014 hPa-
18/08/2022 12:4525.2 °C67 %18.3 °C-NE11 km/h25.0 1014 hPa-
18/08/2022 12:3124.4 °C66 %17.8 °C-SO3 km/h24.4 1014 hPa-
18/08/2022 12:2924.4 °C66 %17.8 °C-N11 km/h24.4 1014 hPa-
18/08/2022 12:1523.9 °C68 %17.8 °C-NNE6 km/h23.9 1015 hPa-
18/08/2022 12:1424.0 °C69 %17.8 °C5 km/hN11 km/h23.9 1015 hPa-
18/08/2022 12:0022.8 °C72 %17.8 °C-SO11 km/h22.8 1015 hPa-
18/08/2022 11:4622.5 °C72 %17.2 °C-O3 km/h22.8 1015 hPa-
18/08/2022 11:4222.4 °C72 %17.2 °C-N10 km/h22.2 1015 hPa-
18/08/2022 11:3021.9 °C74 %17.2 °C-NNO10 km/h21.7 1015 hPa-
18/08/2022 11:1621.7 °C76 %17.2 °C-N6 km/h21.7 1015 hPa-
18/08/2022 11:1521.7 °C75 %17.2 °C-N10 km/h21.7 1015 hPa-
18/08/2022 11:0121.1 °C77 %17.2 °C-SSO5 km/h21.1 1015 hPa-
18/08/2022 10:5921.2 °C76 %16.7 °C2 km/hOSO10 km/h21.1 1015 hPa-
18/08/2022 10:4520.3 °C78 %16.7 °C-NNO8 km/h20.6 1015 hPa-
18/08/2022 10:3120.7 °C78 %16.7 °C-NO3 km/h20.6 1015 hPa-
18/08/2022 10:2920.8 °C78 %16.7 °C2 km/hN8 km/h21.1 1015 hPa-
18/08/2022 10:1519.4 °C81 %16.1 °C2 km/hN8 km/h19.4 1015 hPa-
18/08/2022 10:1419.3 °C81 %16.1 °C-NNO8 km/h19.4 1015 hPa-
18/08/2022 10:0218.9 °C82 %15.6 °C-NNO5 km/h18.9 1015 hPa-
18/08/2022 10:0018.9 °C83 %16.1 °C-NNO8 km/h18.9 1015 hPa-
18/08/2022 09:4619.3 °C83 %16.1 °C-NNE5 km/h19.4 1015 hPa-
18/08/2022 09:4418.9 °C84 %16.1 °C-NNE8 km/h18.9 1015 hPa-
18/08/2022 09:3017.6 °C87 %15.6 °C-NNO8 km/h17.8 1014 hPa-
18/08/2022 09:1617.3 °C89 %15.6 °C-NNE6 km/h17.2 1014 hPa-
18/08/2022 09:1517.1 °C89 %15.6 °C-NNE8 km/h17.2 1014 hPa-
18/08/2022 09:0116.2 °C91 %15.0 °C3 km/hN8 km/h16.1 1014 hPa-
18/08/2022 08:5916.2 °C92 %15.0 °C-N3 km/h16.1 1014 hPa-
18/08/2022 08:4515.3 °C94 %14.4 °C-NNE3 km/h15.6 1014 hPa-
18/08/2022 08:3114.4 °C96 %13.9 °C-NNE2 km/h14.4 1014 hPa-
18/08/2022 08:2714.2 °C96 %13.3 °C-NNE3 km/h14.4 1014 hPa-
18/08/2022 08:1513.6 °C96 %12.8 °C---13.9 1014 hPa-
18/08/2022 08:1413.6 °C96 %12.8 °C-NNO2 km/h13.3 1014 hPa-
18/08/2022 08:0013.3 °C96 %12.8 °C-NNO2 km/h13.3 1014 hPa-
18/08/2022 07:4612.9 °C96 %12.2 °C---12.8 1014 hPa-
18/08/2022 07:4412.9 °C96 %12.2 °C-NNO2 km/h12.8 1014 hPa-
18/08/2022 07:3012.7 °C96 %12.2 °C-NNO2 km/h12.8 1014 hPa-
18/08/2022 07:1612.1 °C95 %11.1 °C---12.2 1014 hPa-
18/08/2022 07:1412.2 °C96 %11.7 °C-NNO2 km/h12.2 1014 hPa-
18/08/2022 07:0012.4 °C96 %11.7 °C-NNO2 km/h12.2 1014 hPa-
18/08/2022 06:4612.3 °C96 %11.7 °C---12.2 1014 hPa-
18/08/2022 06:4412.3 °C95 %11.7 °C-NNO2 km/h12.2 1014 hPa-
18/08/2022 06:3012.2 °C95 %11.7 °C-NNO2 km/h12.2 1013 hPa-
18/08/2022 06:1612.2 °C95 %11.7 °C---12.2 1013 hPa-
18/08/2022 06:1512.3 °C95 %11.7 °C-NNO2 km/h12.2 1013 hPa-
18/08/2022 06:0012.5 °C95 %11.7 °C-NNO2 km/h12.8 1013 hPa-
18/08/2022 05:4612.6 °C95 %11.7 °C---12.8 1013 hPa-
18/08/2022 05:4412.7 °C95 %11.7 °C-NNO2 km/h12.8 1013 hPa-
18/08/2022 05:3012.8 °C95 %12.2 °C-NNO2 km/h12.8 1013 hPa-
18/08/2022 05:1613.1 °C95 %12.2 °C---13.3 1013 hPa-
18/08/2022 05:1513.1 °C95 %12.2 °C-NNO2 km/h13.3 1013 hPa-
18/08/2022 05:0113.3 °C95 %12.8 °C---13.3 1013 hPa-
18/08/2022 04:5913.4 °C95 %12.8 °C-NNO2 km/h13.3 1013 hPa-
18/08/2022 04:4513.5 °C95 %12.8 °C-NNO2 km/h13.3 1013 hPa-
18/08/2022 04:3113.6 °C95 %12.8 °C---13.3 1013 hPa-
18/08/2022 04:2913.5 °C95 %12.8 °C-NNO2 km/h13.3 1013 hPa-
18/08/2022 04:1413.3 °C95 %12.8 °C-NNO2 km/h13.3 1014 hPa-
18/08/2022 04:0013.4 °C94 %12.2 °C-NNO2 km/h13.3 1014 hPa-
18/08/2022 03:4613.6 °C95 %12.8 °C---13.3 1014 hPa-
18/08/2022 03:4413.5 °C94 %12.8 °C-NNO2 km/h13.3 1014 hPa-
18/08/2022 03:3014.1 °C94 %13.3 °C-NNO2 km/h13.9 1014 hPa-
18/08/2022 03:1614.2 °C95 %13.3 °C---14.4 1014 hPa-
18/08/2022 03:1514.2 °C95 %13.3 °C-NNO2 km/h14.4 1014 hPa-
18/08/2022 03:0114.2 °C94 %13.3 °C---14.4 1014 hPa-
18/08/2022 02:5914.3 °C95 %13.3 °C-NNO2 km/h14.4 1013 hPa-
18/08/2022 02:4514.3 °C94 %13.3 °C-NNO2 km/h14.4 1013 hPa-
18/08/2022 02:2914.4 °C95 %13.9 °C---14.4 1013 hPa-
18/08/2022 02:1614.2 °C95 %13.3 °C---14.4 1013 hPa-
18/08/2022 02:1514.2 °C95 %13.3 °C---14.4 1013 hPa-
18/08/2022 02:0114.3 °C94 %13.3 °C---14.4 1013 hPa-
18/08/2022 01:5914.3 °C94 %13.3 °C---14.4 1013 hPa-
18/08/2022 01:4514.0 °C94 %13.3 °C---13.9 1013 hPa-
18/08/2022 01:3114.3 °C94 %13.3 °C---14.4 1013 hPa-
18/08/2022 01:2914.3 °C94 %13.3 °C---14.4 1013 hPa-
18/08/2022 01:1514.6 °C94 %13.9 °C---14.4 1013 hPa-
18/08/2022 01:0014.7 °C94 %13.9 °C---15.0 1013 hPa-
18/08/2022 00:4614.8 °C93 %13.9 °C---15.0 1013 hPa-
18/08/2022 00:4414.8 °C93 %13.9 °C---15.0 1013 hPa-
18/08/2022 00:3015.1 °C93 %13.9 °C---15.0 1013 hPa-
18/08/2022 00:1615.3 °C93 %14.4 °C---15.6 1013 hPa-
18/08/2022 00:1515.4 °C93 %14.4 °C---15.6 1013 hPa-
18/08/2022 00:0115.6 °C92 %14.4 °C---15.6 1013 hPa-


Minima :

Température : 12.1 °C
Humidité : 46 %
Point de rosée : 11.1 °C
Vent moyen : 2 km/h
Windchill : 12.2
Pression atm. : 1013 hPa
Maxima :

Température : 27.9 °C
Humidité : 96 %
Point de rosée : 18.9 °C
Vent moyen : 10 km/h
Windchill : 27.8
Pression atm. : 1016 hPa
Rafales max : 19 km/h
Cumul de pluie sur 24H : 0 mm

Maintenon est une commune du département Eure-et-Loir (28).
La station météorologique du réseau de l'association la plus proche de Maintenon est celle de Chaudon
Site du propriétaire de la station : http://meteo.maingournois.pagesperso-orange.fr/



Icône Facebook Association Météo Centre Icône Twitter Association Météo Centre Icône Chaîne Youtube Association Météo Centre Icône contact Association Météo Centre Icône Insta Association Météo Centre